Terminal Aerodrome Forecast
Issued by NWS Mt. Holly, NJ

Home | Current Version | Previous Version | Text Only | Print | Product List | Glossary On
Versions: 1 2 3 4 5 6 7 8 9 10 11 12 13 14 15 16 17 18 19 20 21 22 23 24
000
FTUS41 KPHI 011700
TAFABE
TAF
KABE 011720Z 0118/0218 05006KT P6SM BKN035
     FM020100 02004KT P6SM BKN030
     FM020900 36003KT 5SM BR BKN025
     FM021400 02009KT P6SM BKN035=

USA.gov is the U.S. government's official web portal to all federal, state and local government web resources and services.